Time,TemperatureF,DewpointF,PressureIn,WindDirection,WindDirectionDegrees,WindSpeedMPH,WindSpeedGustMPH,Humidity,HourlyPrecipIn,Conditions,Clouds,dailyrainin,SoftwareType,DateUTC
2013-04-07 01:02:00,8.0,-4.0,29.57,WNW,284,0.0,2.0,56,0.00,,,0.00,,2013-04-07 09:02:00,
2013-04-07 01:12:00,8.0,-4.0,29.57,WNW,284,0.0,2.0,56,0.00,,,0.00,,2013-04-07 09:12:00,
2013-04-07 01:22:00,8.0,-4.0,29.57,WNW,284,0.0,1.0,56,0.00,,,0.00,,2013-04-07 09:22:00,
2013-04-07 01:33:00,8.0,-4.0,29.57,WNW,284,0.0,1.0,56,0.00,,,0.00,,2013-04-07 09:33:00,
2013-04-07 01:42:00,8.0,-4.0,29.57,WNW,284,0.0,1.0,56,0.00,,,0.00,,2013-04-07 09:42:00,
2013-04-07 01:53:00,7.0,-4.0,29.57,WNW,284,0.0,0.0,59,0.00,,,0.00,,2013-04-07 09:53:00,
2013-04-07 02:02:00,7.0,-5.0,29.57,WNW,284,0.0,0.0,58,0.00,,,0.00,,2013-04-07 10:02:00,
2013-04-07 02:12:00,7.0,-5.0,29.57,WNW,284,0.0,0.0,58,0.00,,,0.00,,2013-04-07 10:12:00,
2013-04-07 02:22:00,7.0,-4.0,29.57,WNW,284,0.0,1.0,59,0.00,,,0.00,,2013-04-07 10:22:00,
2013-04-07 02:32:00,7.0,-5.0,29.57,WNW,284,0.0,1.0,57,0.00,,,0.00,,2013-04-07 10:32:00,
2013-04-07 02:42:00,7.0,-5.0,29.57,WNW,284,0.0,1.0,57,0.00,,,0.00,,2013-04-07 10:42:00,
2013-04-07 02:53:00,7.0,-2.0,29.58,WNW,284,0.0,0.0,65,0.00,,,0.00,,2013-04-07 10:53:00,
2013-04-07 03:02:00,7.0,-3.0,29.58,WNW,284,0.0,0.0,64,0.00,,,0.00,,2013-04-07 11:02:00,
2013-04-07 03:12:00,7.0,-3.0,29.58,WNW,284,0.0,0.0,64,0.00,,,0.00,,2013-04-07 11:12:00,
2013-04-07 03:22:00,7.0,-1.0,29.58,WNW,284,0.0,0.0,69,0.00,,,0.00,,2013-04-07 11:22:00,
2013-04-07 03:32:00,6.0,-3.0,29.58,WNW,284,0.0,0.0,67,0.00,,,0.00,,2013-04-07 11:32:00,
2013-04-07 03:42:00,6.0,-3.0,29.58,WNW,284,0.0,0.0,67,0.00,,,0.00,,2013-04-07 11:42:00,
2013-04-07 03:53:00,7.0,-2.0,29.58,WNW,284,0.0,0.0,67,0.00,,,0.00,,2013-04-07 11:53:00,
2013-04-07 04:02:00,7.0,-1.0,29.58,WNW,284,0.0,2.0,70,0.00,,,0.00,,2013-04-07 12:02:00,
2013-04-07 04:12:00,7.0,-1.0,29.58,WNW,284,0.0,2.0,70,0.00,,,0.00,,2013-04-07 12:12:00,
2013-04-07 04:22:00,6.0,-1.0,29.58,WNW,284,0.0,1.0,72,0.00,,,0.00,,2013-04-07 12:22:00,
2013-04-07 04:32:00,6.0,0.0,29.58,WNW,284,0.0,2.0,74,0.00,,,0.00,,2013-04-07 12:32:00,
2013-04-07 04:42:00,6.0,0.0,29.58,WNW,284,0.0,2.0,74,0.00,,,0.00,,2013-04-07 12:42:00,
2013-04-07 04:53:00,5.0,-1.0,29.58,WNW,284,0.0,0.0,76,0.00,,,0.00,,2013-04-07 12:53:00,
2013-04-07 05:02:00,5.0,0.0,29.59,WNW,284,0.0,1.0,78,0.00,,,0.00,,2013-04-07 13:02:00,
2013-04-07 05:12:00,5.0,0.0,29.59,WNW,284,0.0,1.0,78,0.00,,,0.00,,2013-04-07 13:12:00,
2013-04-07 05:22:00,5.0,0.0,29.59,WNW,284,0.0,1.0,79,0.00,,,0.00,,2013-04-07 13:22:00,
2013-04-07 05:32:00,5.0,1.0,29.59,WNW,284,0.0,1.0,82,0.00,,,0.00,,2013-04-07 13:32:00,
2013-04-07 05:42:00,5.0,1.0,29.59,WNW,284,0.0,1.0,82,0.00,,,0.00,,2013-04-07 13:42:00,
2013-04-07 05:52:00,5.0,1.0,29.60,WNW,284,0.0,0.0,83,0.00,,,0.00,,2013-04-07 13:52:00,
2013-04-07 06:02:00,5.0,1.0,29.60,ENE,76,0.0,2.0,84,0.00,,,0.00,,2013-04-07 14:02:00,
2013-04-07 06:12:00,5.0,1.0,29.60,ENE,76,0.0,2.0,84,0.00,,,0.00,,2013-04-07 14:12:00,
2013-04-07 06:22:00,4.0,0.0,29.60,East,88,1.0,5.0,84,0.00,,,0.00,,2013-04-07 14:22:00,
2013-04-07 06:32:00,4.0,1.0,29.61,East,88,0.0,3.0,85,0.00,,,0.00,,2013-04-07 14:32:00,
2013-04-07 06:42:00,4.0,1.0,29.61,East,88,0.0,3.0,85,0.00,,,0.00,,2013-04-07 14:42:00,
2013-04-07 06:53:00,4.0,1.0,29.61,NE,43,0.0,2.0,85,0.00,,,0.00,,2013-04-07 14:53:00,
2013-04-07 07:02:00,3.0,0.0,29.61,NNE,28,0.0,2.0,85,0.00,,,0.00,,2013-04-07 15:02:00,
2013-04-07 07:12:00,3.0,0.0,29.61,NNE,28,0.0,2.0,85,0.00,,,0.00,,2013-04-07 15:12:00,
2013-04-07 07:22:00,3.0,0.0,29.61,NNE,15,0.0,2.0,85,0.00,,,0.00,,2013-04-07 15:22:00,
2013-04-07 07:33:00,3.0,0.0,29.62,NNE,15,0.0,2.0,85,0.00,,,0.00,,2013-04-07 15:33:00,
2013-04-07 07:43:00,3.0,0.0,29.62,NNE,15,0.0,2.0,85,0.00,,,0.00,,2013-04-07 15:43:00,
2013-04-07 07:54:00,3.0,0.0,29.62,NNE,23,0.0,2.0,85,0.00,,,0.00,,2013-04-07 15:54:00,
2013-04-07 08:03:00,3.0,0.0,29.62,NNE,22,0.0,2.0,85,0.00,,,0.00,,2013-04-07 16:03:00,
2013-04-07 08:12:00,3.0,0.0,29.62,NNE,22,0.0,2.0,85,0.00,,,0.00,,2013-04-07 16:12:00,
2013-04-07 08:23:00,3.0,0.0,29.62,NNE,23,0.0,2.0,85,0.00,,,0.00,,2013-04-07 16:23:00,
2013-04-07 08:32:00,3.0,0.0,29.63,NE,55,0.0,2.0,85,0.00,,,0.00,,2013-04-07 16:32:00,
2013-04-07 08:42:00,3.0,0.0,29.63,NE,55,0.0,2.0,85,0.00,,,0.00,,2013-04-07 16:42:00,
2013-04-07 08:53:00,3.0,-1.0,29.63,NE,51,0.0,2.0,84,0.00,,,0.00,,2013-04-07 16:53:00,
2013-04-07 09:02:00,3.0,-1.0,29.63,ESE,120,0.0,3.0,84,0.00,,,0.00,,2013-04-07 17:02:00,
2013-04-07 09:12:00,3.0,-1.0,29.63,ESE,120,0.0,3.0,84,0.00,,,0.00,,2013-04-07 17:12:00,
2013-04-07 09:22:00,3.0,-1.0,29.63,ESE,109,0.0,3.0,84,0.00,,,0.00,,2013-04-07 17:22:00,
2013-04-07 09:32:00,3.0,0.0,29.63,NNE,26,0.0,1.0,85,0.00,,,0.00,,2013-04-07 17:32:00,
2013-04-07 09:42:00,3.0,0.0,29.63,NNE,26,0.0,1.0,85,0.00,,,0.00,,2013-04-07 17:42:00,
2013-04-07 09:53:00,3.0,-1.0,29.65,NNE,28,0.0,2.0,84,0.00,,,0.00,,2013-04-07 17:53:00,
2013-04-07 10:02:00,3.0,-1.0,29.65,NNE,28,0.0,2.0,83,0.00,,,0.00,,2013-04-07 18:02:00,
2013-04-07 10:12:00,3.0,-1.0,29.65,NNE,28,0.0,2.0,83,0.00,,,0.00,,2013-04-07 18:12:00,
2013-04-07 10:22:00,3.0,-1.0,29.65,NNE,28,0.0,1.0,82,0.00,,,0.00,,2013-04-07 18:22:00,
2013-04-07 10:32:00,4.0,0.0,29.65,NNE,28,0.0,1.0,83,0.00,,,0.00,,2013-04-07 18:32:00,
2013-04-07 10:42:00,4.0,0.0,29.65,NNE,28,0.0,1.0,83,0.00,,,0.00,,2013-04-07 18:42:00,
2013-04-07 10:52:00,4.0,0.0,29.66,NNE,28,0.0,1.0,82,0.00,,,0.00,,2013-04-07 18:52:00,
2013-04-07 11:02:00,4.0,0.0,29.66,NNE,28,0.0,2.0,82,0.00,,,0.00,,2013-04-07 19:02:00,
2013-04-07 11:11:00,4.0,0.0,29.66,NNE,28,0.0,2.0,82,0.00,,,0.00,,2013-04-07 19:11:00,
2013-04-07 11:22:00,4.0,-1.0,29.67,NNE,28,0.0,1.0,80,0.00,,,0.00,,2013-04-07 19:22:00,
2013-04-07 11:32:00,4.0,0.0,29.67,NNE,28,0.0,2.0,82,0.00,,,0.00,,2013-04-07 19:32:00,
2013-04-07 11:42:00,4.0,0.0,29.67,NNE,28,0.0,2.0,82,0.00,,,0.00,,2013-04-07 19:42:00,
2013-04-07 11:53:00,5.0,0.0,29.67,NE,34,0.0,1.0,81,0.00,,,0.00,,2013-04-07 19:53:00,
2013-04-07 12:02:00,5.0,0.0,29.67,NE,34,0.0,1.0,81,0.00,,,0.00,,2013-04-07 20:02:00,
2013-04-07 12:12:00,5.0,0.0,29.67,NE,34,0.0,1.0,81,0.00,,,0.00,,2013-04-07 20:12:00,
2013-04-07 12:22:00,5.0,1.0,29.68,East,94,1.0,5.0,82,0.00,,,0.00,,2013-04-07 20:22:00,
2013-04-07 12:32:00,5.0,1.0,29.68,East,94,1.0,5.0,82,0.00,,,0.00,,2013-04-07 20:32:00,
2013-04-07 12:44:00,5.0,1.0,29.68,East,94,1.0,5.0,82,0.00,,,0.00,,2013-04-07 20:44:00,
2013-04-07 12:53:00,5.0,0.0,29.68,East,99,1.0,5.0,81,0.00,,,0.00,,2013-04-07 20:53:00,
2013-04-07 13:02:00,5.0,1.0,29.68,East,99,0.0,2.0,82,0.00,,,0.00,,2013-04-07 21:02:00,
2013-04-07 13:12:00,5.0,1.0,29.68,East,99,0.0,2.0,82,0.00,,,0.00,,2013-04-07 21:12:00,
2013-04-07 13:22:00,6.0,1.0,29.69,East,97,0.0,2.0,81,0.00,,,0.00,,2013-04-07 21:22:00,
2013-04-07 13:33:00,6.0,2.0,29.69,East,97,0.0,2.0,82,0.00,,,0.00,,2013-04-07 21:33:00,
2013-04-07 13:43:00,6.0,2.0,29.69,East,97,0.0,2.0,82,0.00,,,0.00,,2013-04-07 21:43:00,
2013-04-07 13:52:00,6.0,1.0,29.69,East,97,0.0,2.0,81,0.00,,,0.00,,2013-04-07 21:52:00,
2013-04-07 14:03:00,6.0,2.0,29.69,East,97,1.0,3.0,82,0.00,,,0.00,,2013-04-07 22:03:00,
2013-04-07 14:13:00,6.0,2.0,29.69,East,97,1.0,3.0,82,0.00,,,0.00,,2013-04-07 22:13:00,
2013-04-07 14:23:00,6.0,2.0,29.69,East,96,1.0,3.0,82,0.00,,,0.00,,2013-04-07 22:23:00,
2013-04-07 14:33:00,7.0,3.0,29.69,East,96,0.0,3.0,83,0.00,,,0.00,,2013-04-07 22:33:00,
2013-04-07 14:43:00,7.0,3.0,29.69,East,96,0.0,3.0,83,0.00,,,0.00,,2013-04-07 22:43:00,
2013-04-07 14:52:00,7.0,3.0,29.70,ESE,103,0.0,2.0,83,0.00,,,0.00,,2013-04-07 22:52:00,
2013-04-07 15:03:00,7.0,3.0,29.69,ESE,103,0.0,2.0,83,0.00,,,0.00,,2013-04-07 23:03:00,
2013-04-07 15:12:00,7.0,3.0,29.69,ESE,103,0.0,2.0,83,0.00,,,0.00,,2013-04-07 23:12:00,
2013-04-07 15:22:00,7.0,3.0,29.70,ESE,102,0.0,2.0,82,0.00,,,0.00,,2013-04-07 23:22:00,
2013-04-07 15:32:00,8.0,4.0,29.70,ESE,102,0.0,1.0,83,0.00,,,0.00,,2013-04-07 23:32:00,
2013-04-07 15:42:00,8.0,4.0,29.70,ESE,102,0.0,1.0,83,0.00,,,0.00,,2013-04-07 23:42:00,
2013-04-07 15:52:00,8.0,4.0,29.70,ESE,102,0.0,1.0,83,0.00,,,0.00,,2013-04-07 23:52:00,
2013-04-07 16:02:00,8.0,4.0,29.71,ESE,102,0.0,2.0,84,0.00,,,0.00,,2013-04-08 00:02:00,
2013-04-07 16:12:00,8.0,4.0,29.71,ESE,102,0.0,2.0,84,0.00,,,0.00,,2013-04-08 00:12:00,
2013-04-07 16:22:00,8.0,4.0,29.70,West,259,0.0,2.0,82,0.00,,,0.00,,2013-04-08 00:22:00,
2013-04-07 16:32:00,9.0,5.0,29.71,SE,128,0.0,3.0,82,0.00,,,0.00,,2013-04-08 00:32:00,
2013-04-07 16:42:00,9.0,5.0,29.71,SE,128,0.0,3.0,82,0.00,,,0.00,,2013-04-08 00:42:00,
2013-04-07 16:52:00,9.0,5.0,29.71,WSW,248,0.0,1.0,82,0.00,,,0.00,,2013-04-08 00:52:00,
2013-04-07 17:02:00,9.0,5.0,29.71,North,355,0.0,2.0,82,0.00,,,0.00,,2013-04-08 01:02:00,
2013-04-07 17:12:00,9.0,5.0,29.71,North,355,0.0,2.0,82,0.00,,,0.00,,2013-04-08 01:12:00,
2013-04-07 17:22:00,9.0,5.0,29.72,NE,53,0.0,2.0,82,0.00,,,0.00,,2013-04-08 01:22:00,
2013-04-07 17:32:00,9.0,5.0,29.72,NNE,24,0.0,1.0,82,0.00,,,0.00,,2013-04-08 01:32:00,
2013-04-07 17:42:00,9.0,5.0,29.72,NNE,24,0.0,1.0,82,0.00,,,0.00,,2013-04-08 01:42:00,
2013-04-07 17:53:00,9.0,4.0,29.73,ESE,113,0.0,1.0,81,0.00,,,0.00,,2013-04-08 01:53:00,
2013-04-07 18:02:00,9.0,4.0,29.73,ESE,113,0.0,1.0,79,0.00,,,0.00,,2013-04-08 02:02:00,
2013-04-07 18:12:00,9.0,4.0,29.73,ESE,113,0.0,1.0,79,0.00,,,0.00,,2013-04-08 02:12:00,
2013-04-07 18:22:00,9.0,4.0,29.73,SSW,196,0.0,1.0,79,0.00,,,0.00,,2013-04-08 02:22:00,
2013-04-07 18:32:00,9.0,4.0,29.74,ESE,121,0.0,2.0,81,0.00,,,0.00,,2013-04-08 02:32:00,
2013-04-07 18:44:00,9.0,4.0,29.74,ESE,121,0.0,2.0,81,0.00,,,0.00,,2013-04-08 02:44:00,
2013-04-07 18:52:00,8.0,4.0,29.75,East,82,0.0,3.0,83,0.00,,,0.00,,2013-04-08 02:52:00,
2013-04-07 19:05:00,8.0,4.0,29.74,East,82,0.0,2.0,85,0.00,,,0.00,,2013-04-08 03:05:00,
2013-04-07 19:14:00,8.0,4.0,29.74,East,82,0.0,2.0,85,0.00,,,0.00,,2013-04-08 03:14:00,
2013-04-07 19:23:00,8.0,5.0,29.75,East,82,0.0,1.0,86,0.00,,,0.00,,2013-04-08 03:23:00,
2013-04-07 19:33:00,8.0,4.0,29.75,East,82,0.0,1.0,85,0.00,,,0.00,,2013-04-08 03:33:00,
2013-04-07 19:45:00,8.0,4.0,29.75,East,82,0.0,1.0,85,0.00,,,0.00,,2013-04-08 03:45:00,
2013-04-07 19:53:00,8.0,4.0,29.76,East,82,0.0,1.0,84,0.00,,,0.00,,2013-04-08 03:53:00,
2013-04-07 20:02:00,8.0,4.0,29.76,ENE,73,0.0,2.0,82,0.00,,,0.00,,2013-04-08 04:02:00,
2013-04-07 20:12:00,8.0,4.0,29.76,ENE,73,0.0,2.0,82,0.00,,,0.00,,2013-04-08 04:12:00,
2013-04-07 20:23:00,8.0,3.0,29.77,NE,45,0.0,2.0,81,0.00,,,0.00,,2013-04-08 04:23:00,
2013-04-07 20:33:00,8.0,4.0,29.77,NE,45,0.0,3.0,82,0.00,,,0.00,,2013-04-08 04:33:00,
2013-04-07 20:43:00,8.0,4.0,29.77,NE,45,0.0,3.0,82,0.00,,,0.00,,2013-04-08 04:43:00,
2013-04-07 20:52:00,8.0,3.0,29.77,NE,45,0.0,2.0,80,0.00,,,0.00,,2013-04-08 04:52:00,
2013-04-07 21:02:00,8.0,4.0,29.78,NE,45,0.0,1.0,82,0.00,,,0.00,,2013-04-08 05:02:00,
2013-04-07 21:12:00,8.0,4.0,29.78,NE,45,0.0,1.0,82,0.00,,,0.00,,2013-04-08 05:12:00,
2013-04-07 21:22:00,8.0,4.0,29.78,NE,45,0.0,1.0,82,0.00,,,0.00,,2013-04-08 05:22:00,
2013-04-07 21:32:00,7.0,2.0,29.79,NE,45,0.0,1.0,81,0.00,,,0.00,,2013-04-08 05:32:00,
2013-04-07 21:42:00,7.0,2.0,29.79,NE,45,0.0,1.0,81,0.00,,,0.00,,2013-04-08 05:42:00,
2013-04-07 21:52:00,6.0,2.0,29.80,NE,45,0.0,1.0,83,0.00,,,0.00,,2013-04-08 05:52:00,
2013-04-07 22:02:00,6.0,2.0,29.80,NE,45,0.0,0.0,84,0.00,,,0.00,,2013-04-08 06:02:00,
2013-04-07 22:12:00,6.0,2.0,29.80,NE,45,0.0,0.0,84,0.00,,,0.00,,2013-04-08 06:12:00,
2013-04-07 22:21:00,6.0,2.0,29.81,NE,45,0.0,0.0,84,0.00,,,0.00,,2013-04-08 06:21:00,
2013-04-07 22:32:00,5.0,1.0,29.81,NE,45,0.0,0.0,84,0.00,,,0.00,,2013-04-08 06:32:00,
2013-04-07 22:42:00,5.0,1.0,29.81,NE,45,0.0,0.0,84,0.00,,,0.00,,2013-04-08 06:42:00,
2013-04-07 22:52:00,5.0,1.0,29.81,NE,45,0.0,0.0,84,0.00,,,0.00,,2013-04-08 06:52:00,
2013-04-07 23:02:00,4.0,0.0,29.82,NE,45,0.0,0.0,82,0.00,,,0.00,,2013-04-08 07:02:00,
2013-04-07 23:12:00,4.0,0.0,29.82,NE,45,0.0,0.0,82,0.00,,,0.00,,2013-04-08 07:12:00,
2013-04-07 23:21:00,3.0,-1.0,29.82,NE,45,0.0,0.0,83,0.00,,,0.00,,2013-04-08 07:21:00,
2013-04-07 23:32:00,3.0,-1.0,29.82,NE,45,0.0,0.0,83,0.00,,,0.00,,2013-04-08 07:32:00,
2013-04-07 23:42:00,3.0,-1.0,29.82,NE,45,0.0,0.0,83,0.00,,,0.00,,2013-04-08 07:42:00,
2013-04-07 23:52:00,1.0,-3.0,29.83,NE,45,0.0,1.0,83,0.00,,,0.00,,2013-04-08 07:52:00,